createdAt,value
2023-08-29T00:01:25.873Z,78.31
2023-08-29T00:03:57.252Z,78.64
2023-08-29T00:06:25.526Z,78.54
2023-08-29T00:08:53.783Z,78.40
2023-08-29T00:11:22.935Z,78.22
2023-08-29T00:13:53.716Z,78.25
2023-08-29T00:16:23.707Z,78.20
2023-08-29T00:18:52.378Z,78.13
2023-08-29T00:21:21.670Z,78.38
2023-08-29T00:23:50.602Z,78.57
2023-08-29T00:26:19.646Z,78.32
2023-08-29T00:28:51.620Z,78.08
2023-08-29T00:31:20.814Z,78.12
2023-08-29T00:33:49.679Z,77.99
2023-08-29T00:36:18.437Z,78.07
2023-08-29T00:38:47.682Z,78.44
2023-08-29T00:48:28.908Z,78.21
2023-08-29T00:50:55.878Z,78.37
2023-08-29T00:53:22.428Z,78.53
2023-08-29T00:55:49.366Z,77.96
2023-08-29T00:58:15.883Z,78.50
2023-08-29T01:00:42.554Z,79.00
2023-08-29T01:03:09.140Z,79.10
2023-08-29T01:05:35.745Z,78.76
2023-08-29T01:08:02.397Z,78.75
2023-08-29T01:10:46.327Z,78.12
2023-08-29T01:13:18.965Z,77.86
2023-08-29T01:15:47.742Z,78.13
2023-08-29T01:18:14.903Z,78.49
2023-08-29T01:20:41.454Z,78.85
2023-08-29T01:23:15.162Z,78.69
2023-08-29T01:26:12.888Z,78.30
2023-08-29T01:28:42.223Z,77.82
2023-08-29T01:31:08.829Z,77.63
2023-08-29T01:33:35.604Z,77.75
2023-08-29T01:36:02.218Z,78.31
2023-08-29T01:38:28.797Z,79.09
2023-08-29T01:40:55.364Z,79.41
2023-08-29T01:43:22.047Z,79.55
2023-08-29T01:45:48.919Z,79.36
2023-08-29T01:48:15.689Z,78.78
2023-08-29T01:50:43.217Z,78.41
2023-08-29T01:53:12.853Z,78.51
2023-08-29T01:55:39.412Z,78.83
2023-08-29T01:58:06.514Z,78.48
2023-08-29T02:00:34.123Z,78.03
2023-08-29T02:03:00.738Z,77.40
2023-08-29T02:05:28.253Z,78.35
2023-08-29T02:07:54.766Z,78.61
2023-08-29T02:10:21.524Z,78.51
2023-08-29T02:12:48.089Z,78.77
2023-08-29T02:15:14.698Z,78.27
2023-08-29T02:17:41.406Z,78.39
2023-08-29T02:27:00.369Z,78.99
2023-08-29T02:29:26.913Z,79.51
2023-08-29T02:31:53.393Z,79.52
2023-08-29T02:34:19.904Z,79.18
2023-08-29T02:36:46.449Z,79.30
2023-08-29T02:39:12.997Z,78.88
2023-08-29T02:41:39.592Z,78.80
2023-08-29T02:44:06.255Z,78.63
2023-08-29T02:46:32.878Z,78.90
2023-08-29T02:48:59.498Z,78.96
2023-08-29T02:51:26.735Z,78.74
2023-08-29T02:53:53.476Z,78.60
2023-08-29T02:56:20.614Z,78.19
2023-08-29T02:58:48.091Z,78.18
2023-08-29T03:01:15.073Z,78.15
2023-08-29T03:03:42.407Z,78.44
2023-08-29T03:06:09.271Z,78.56
2023-08-29T03:08:36.319Z,78.19
2023-08-29T03:11:06.971Z,78.07
2023-08-29T03:13:33.857Z,77.99
2023-08-29T03:16:00.896Z,77.73
2023-08-29T03:18:28.800Z,77.73
2023-08-29T03:20:57.102Z,78.02
2023-08-29T03:23:23.686Z,78.07
2023-08-29T03:25:50.312Z,78.34
2023-08-29T03:28:16.881Z,78.28
2023-08-29T03:30:43.695Z,78.12
2023-08-29T03:33:10.332Z,78.09
2023-08-29T03:35:37.255Z,77.87
2023-08-29T03:38:05.681Z,77.84
2023-08-29T03:40:32.464Z,77.73
2023-08-29T03:42:59.806Z,78.11
2023-08-29T03:45:26.383Z,78.26
2023-08-29T03:47:52.953Z,78.20
2023-08-29T03:50:22.190Z,78.17
2023-08-29T03:52:49.290Z,77.97
2023-08-29T03:55:16.142Z,77.51
2023-08-29T03:57:42.836Z,77.20
2023-08-29T04:00:11.879Z,77.62
2023-08-29T04:02:42.432Z,77.76
2023-08-29T04:05:16.703Z,77.75
2023-08-29T04:07:43.853Z,78.12
2023-08-29T04:10:13.200Z,78.37
2023-08-29T04:12:39.723Z,78.54
2023-08-29T04:15:07.355Z,78.54
2023-08-29T04:17:33.951Z,78.21
2023-08-29T04:20:01.464Z,77.64
2023-08-29T04:29:46.458Z,78.33
2023-08-29T04:32:13.363Z,78.38
2023-08-29T04:34:40.395Z,78.30
2023-08-29T04:37:06.953Z,78.03
2023-08-29T04:39:33.660Z,77.93
2023-08-29T04:42:01.110Z,77.51
2023-08-29T04:44:28.142Z,77.50
2023-08-29T04:46:56.113Z,77.49
2023-08-29T04:49:23.279Z,77.52
2023-08-29T04:51:49.802Z,77.53
2023-08-29T04:54:16.477Z,77.76
2023-08-29T04:56:43.502Z,77.80
2023-08-29T04:59:10.014Z,77.90
2023-08-29T05:01:37.322Z,77.85
2023-08-29T05:04:07.378Z,77.65
2023-08-29T05:06:34.243Z,77.61
2023-08-29T05:09:00.852Z,77.39
2023-08-29T05:11:28.104Z,77.57
2023-08-29T05:13:54.592Z,77.25
2023-08-29T05:16:21.136Z,77.67
2023-08-29T05:18:48.469Z,77.70
2023-08-29T05:21:14.974Z,77.54
2023-08-29T05:23:41.556Z,77.68
2023-08-29T05:26:08.113Z,77.26
2023-08-29T05:28:34.890Z,77.32
2023-08-29T05:31:01.478Z,77.10
2023-08-29T05:33:28.104Z,77.16
2023-08-29T05:35:54.611Z,77.18
2023-08-29T05:38:26.677Z,77.57
2023-08-29T05:40:53.844Z,77.44
2023-08-29T05:43:20.889Z,77.32
2023-08-29T05:45:47.402Z,77.10
2023-08-29T05:48:14.460Z,77.10
2023-08-29T05:50:41.731Z,76.86
2023-08-29T05:53:08.463Z,76.83
2023-08-29T05:55:35.468Z,77.11
2023-08-29T05:58:01.983Z,77.30
2023-08-29T06:00:28.598Z,77.76
2023-08-29T06:02:55.180Z,77.85
2023-08-29T06:05:22.072Z,77.42
2023-08-29T06:07:48.578Z,77.52
2023-08-29T06:10:15.347Z,77.70
2023-08-29T06:12:42.312Z,77.39
2023-08-29T06:15:09.653Z,77.72
2023-08-29T06:17:36.378Z,77.98
2023-08-29T06:20:04.778Z,78.03
2023-08-29T06:22:31.288Z,78.08
2023-08-29T06:24:57.815Z,77.72
2023-08-29T06:27:24.378Z,77.68
2023-08-29T06:29:50.965Z,77.87
2023-08-29T06:32:17.518Z,77.68
2023-08-29T06:34:44.075Z,77.91
2023-08-29T06:37:10.592Z,78.29
2023-08-29T06:39:37.262Z,77.96
2023-08-29T06:42:03.879Z,78.06
2023-08-29T06:44:31.456Z,77.82
2023-08-29T06:46:58.194Z,77.58
2023-08-29T06:49:24.736Z,77.30
2023-08-29T06:51:51.290Z,77.28
2023-08-29T06:54:17.808Z,76.86
2023-08-29T06:56:44.388Z,76.95
2023-08-29T06:59:12.318Z,77.17
2023-08-29T07:01:38.867Z,77.51
2023-08-29T07:04:06.111Z,77.46
2023-08-29T07:06:32.748Z,76.82
2023-08-29T07:08:59.381Z,77.24
2023-08-29T07:11:25.895Z,78.08
2023-08-29T07:13:52.440Z,77.71
2023-08-29T07:16:19.067Z,77.97
2023-08-29T07:18:46.060Z,78.69
2023-08-29T07:21:12.670Z,79.26
2023-08-29T07:23:39.208Z,79.37
2023-08-29T07:26:05.773Z,79.07
2023-08-29T07:28:32.406Z,78.82
2023-08-29T07:30:59.923Z,78.54
2023-08-29T07:33:26.592Z,78.80
2023-08-29T07:35:53.550Z,78.95
2023-08-29T07:38:20.308Z,78.92
2023-08-29T07:40:46.988Z,78.61
2023-08-29T07:43:14.463Z,78.52
2023-08-29T07:45:40.960Z,78.45
2023-08-29T07:48:08.071Z,78.28
2023-08-29T07:50:34.989Z,78.35
2023-08-29T07:53:02.164Z,78.15
2023-08-29T07:55:28.655Z,78.43
2023-08-29T07:57:55.346Z,78.41
2023-08-29T08:00:22.617Z,78.55
2023-08-29T08:02:49.318Z,78.19
2023-08-29T08:05:16.738Z,78.24
2023-08-29T08:07:44.547Z,78.27
2023-08-29T08:10:12.197Z,78.15
2023-08-29T08:12:40.089Z,78.11
2023-08-29T08:15:09.117Z,78.41
2023-08-29T08:17:36.662Z,78.06
2023-08-29T08:20:08.105Z,78.20
2023-08-29T08:22:35.729Z,78.02
2023-08-29T08:25:02.808Z,77.94
2023-08-29T08:27:31.050Z,77.49
2023-08-29T08:29:58.409Z,77.44
2023-08-29T08:32:25.183Z,77.52
2023-08-29T08:34:51.734Z,77.85
2023-08-29T08:37:18.295Z,77.84
2023-08-29T08:39:44.782Z,78.23
2023-08-29T08:42:12.430Z,78.06
2023-08-29T08:44:39.198Z,77.99
2023-08-29T08:47:06.548Z,77.47
2023-08-29T08:49:33.210Z,77.57
2023-08-29T08:51:59.745Z,77.58
2023-08-29T08:54:26.301Z,77.83
2023-08-29T08:56:52.857Z,78.01
2023-08-29T08:59:19.534Z,78.05
2023-08-29T09:01:46.247Z,77.93
2023-08-29T09:04:12.922Z,77.56
2023-08-29T09:06:39.943Z,77.48
2023-08-29T09:09:17.956Z,77.42
2023-08-29T09:11:44.644Z,76.99
2023-08-29T09:14:13.875Z,77.00
2023-08-29T09:16:40.646Z,76.56
2023-08-29T09:19:07.804Z,76.38
2023-08-29T09:21:36.552Z,78.04
2023-08-29T09:24:05.743Z,78.10
2023-08-29T09:26:35.474Z,78.33
2023-08-29T09:29:16.329Z,77.73
2023-08-29T09:31:42.908Z,78.05
2023-08-29T09:34:09.643Z,78.25
2023-08-29T09:36:36.221Z,77.82
2023-08-29T09:39:03.832Z,77.97
2023-08-29T09:41:30.346Z,78.26
2023-08-29T09:43:57.022Z,78.32
2023-08-29T09:46:26.707Z,78.20
2023-08-29T09:48:57.090Z,78.18
2023-08-29T09:51:23.926Z,77.96
2023-08-29T09:53:50.838Z,77.14
2023-08-29T09:56:17.363Z,76.43
2023-08-29T09:58:44.129Z,77.00
2023-08-29T10:01:11.840Z,77.60
2023-08-29T10:03:38.556Z,78.19
2023-08-29T10:06:06.716Z,78.61
2023-08-29T10:08:43.013Z,78.62
2023-08-29T10:11:09.560Z,78.48
2023-08-29T10:13:36.221Z,78.13
2023-08-29T10:16:03.018Z,78.26
2023-08-29T10:18:29.506Z,78.26
2023-08-29T10:20:56.082Z,78.03
2023-08-29T10:23:22.578Z,78.17
2023-08-29T10:25:49.125Z,78.14
2023-08-29T10:28:15.695Z,77.94
2023-08-29T10:30:47.272Z,77.79
2023-08-29T10:33:14.462Z,77.55
2023-08-29T10:35:41.024Z,77.07
2023-08-29T10:38:11.362Z,77.38
2023-08-29T10:40:39.966Z,77.75
2023-08-29T10:43:17.547Z,77.62
2023-08-29T10:46:13.480Z,77.85
2023-08-29T10:48:40.283Z,77.79
2023-08-29T10:51:26.548Z,77.55
2023-08-29T10:54:06.545Z,76.60
2023-08-29T10:56:40.795Z,76.67
2023-08-29T10:59:07.480Z,76.95
2023-08-29T11:01:34.968Z,76.69
2023-08-29T11:04:04.751Z,77.58
2023-08-29T11:06:54.882Z,77.82
2023-08-29T11:09:22.885Z,77.68
2023-08-29T11:12:14.165Z,77.73
2023-08-29T11:14:53.710Z,77.49
2023-08-29T11:17:24.630Z,77.34
2023-08-29T11:19:56.253Z,76.28
2023-08-29T11:22:32.701Z,76.32
2023-08-29T11:24:59.499Z,76.86
2023-08-29T11:27:27.164Z,76.92
2023-08-29T11:30:05.829Z,77.04
2023-08-29T11:32:41.735Z,77.26
2023-08-29T11:35:08.352Z,77.92
2023-08-29T11:37:35.664Z,77.81
2023-08-29T11:40:10.757Z,78.10
2023-08-29T11:42:42.713Z,77.94
2023-08-29T11:45:45.718Z,78.03
2023-08-29T11:48:13.821Z,77.88
2023-08-29T11:50:40.610Z,77.86
2023-08-29T11:53:07.780Z,77.89
2023-08-29T11:55:34.290Z,78.29
2023-08-29T11:58:01.348Z,77.65
2023-08-29T12:00:27.874Z,77.46
2023-08-29T12:02:54.451Z,77.48
2023-08-29T12:05:21.668Z,77.51
2023-08-29T12:07:52.293Z,76.66
2023-08-29T12:10:19.262Z,76.77
2023-08-29T12:12:45.983Z,77.56
2023-08-29T12:15:12.729Z,77.01
2023-08-29T12:17:41.586Z,77.65
2023-08-29T12:20:17.602Z,77.54
2023-08-29T12:22:53.429Z,77.54
2023-08-29T12:25:20.091Z,77.52
2023-08-29T12:27:47.911Z,77.56
2023-08-29T12:30:15.491Z,77.62
2023-08-29T12:32:44.097Z,77.35
2023-08-29T12:35:11.579Z,77.27
2023-08-29T12:37:38.103Z,77.47
2023-08-29T12:40:06.423Z,77.65
2023-08-29T12:42:33.079Z,77.28
2023-08-29T12:45:00.809Z,77.60
2023-08-29T12:47:27.616Z,78.07
2023-08-29T12:49:54.165Z,78.01
2023-08-29T12:52:20.865Z,78.95
2023-08-29T12:54:47.637Z,78.14
2023-08-29T12:57:14.386Z,78.37
2023-08-29T12:59:40.952Z,77.87
2023-08-29T13:02:07.842Z,78.03
2023-08-29T13:04:34.451Z,78.28
2023-08-29T13:07:00.995Z,78.80
2023-08-29T13:09:37.599Z,78.47
2023-08-29T13:12:08.054Z,78.03
2023-08-29T13:14:38.619Z,77.74
2023-08-29T13:17:06.776Z,78.29
2023-08-29T13:19:34.318Z,78.24
2023-08-29T13:22:04.363Z,77.76
2023-08-29T13:24:31.057Z,77.69
2023-08-29T13:26:57.622Z,78.33
2023-08-29T13:29:24.415Z,77.76
2023-08-29T13:31:51.754Z,78.07
2023-08-29T13:34:18.849Z,77.42
2023-08-29T13:36:45.681Z,77.52
2023-08-29T13:39:12.404Z,77.89
2023-08-29T13:41:39.149Z,77.89
2023-08-29T13:44:05.668Z,78.10
2023-08-29T13:46:32.435Z,78.13
2023-08-29T13:48:59.006Z,77.97
2023-08-29T13:51:25.601Z,77.88
2023-08-29T13:53:52.122Z,77.90
2023-08-29T13:56:18.704Z,77.65
2023-08-29T13:58:45.875Z,77.69
2023-08-29T14:01:13.647Z,77.78
2023-08-29T14:03:40.331Z,77.73
2023-08-29T14:06:07.071Z,77.97
2023-08-29T14:08:33.642Z,77.77
2023-08-29T14:11:01.150Z,77.55
2023-08-29T14:13:27.744Z,77.53
2023-08-29T14:16:01.546Z,77.28
2023-08-29T14:18:28.298Z,77.19
2023-08-29T14:20:55.174Z,77.29
2023-08-29T14:23:21.736Z,77.10
2023-08-29T14:25:48.490Z,77.46
2023-08-29T14:28:15.023Z,77.71
2023-08-29T14:30:42.925Z,77.42
2023-08-29T14:33:11.598Z,77.31
2023-08-29T14:35:39.343Z,77.16
2023-08-29T14:38:06.265Z,77.07
2023-08-29T14:40:33.728Z,77.31
2023-08-29T14:43:00.309Z,77.48
2023-08-29T14:45:27.009Z,77.53
2023-08-29T14:47:56.937Z,77.40
2023-08-29T14:50:25.818Z,77.38
2023-08-29T14:52:52.767Z,77.50
2023-08-29T14:55:22.735Z,77.30
2023-08-29T14:57:49.747Z,77.23
2023-08-29T15:00:17.059Z,77.53
2023-08-29T15:02:45.155Z,77.54
2023-08-29T15:05:13.341Z,77.65
2023-08-29T15:07:40.989Z,77.73
2023-08-29T15:10:09.482Z,77.30
2023-08-29T15:12:36.147Z,77.08
2023-08-29T15:15:02.931Z,77.19
2023-08-29T15:17:31.635Z,77.41
2023-08-29T15:19:58.335Z,77.26
2023-08-29T15:22:25.039Z,77.32
2023-08-29T15:24:51.828Z,77.51
2023-08-29T15:27:18.484Z,77.67
2023-08-29T15:29:45.559Z,77.80
2023-08-29T15:32:12.128Z,77.63
2023-08-29T15:34:38.864Z,77.49
2023-08-29T15:37:06.247Z,77.59
2023-08-29T15:39:33.939Z,77.33
2023-08-29T15:42:01.096Z,77.25
2023-08-29T15:44:33.301Z,77.34
2023-08-29T15:47:00.939Z,77.67
2023-08-29T15:49:27.928Z,77.68
2023-08-29T15:51:55.167Z,77.74
2023-08-29T15:54:22.149Z,77.52
2023-08-29T15:56:48.793Z,77.25
2023-08-29T15:59:15.341Z,77.28
2023-08-29T16:01:42.739Z,76.98
2023-08-29T16:04:09.603Z,77.12
2023-08-29T16:06:36.202Z,76.87
2023-08-29T16:09:03.557Z,76.90
2023-08-29T16:11:30.117Z,77.08
2023-08-29T16:13:56.605Z,77.24
2023-08-29T16:16:23.144Z,77.30
2023-08-29T16:18:49.768Z,77.15
2023-08-29T16:21:17.824Z,77.15
2023-08-29T16:23:46.656Z,77.10
2023-08-29T16:26:17.598Z,77.03
2023-08-29T16:28:44.599Z,77.20
2023-08-29T16:31:11.217Z,77.52
2023-08-29T16:33:37.932Z,77.31
2023-08-29T16:36:05.246Z,77.36
2023-08-29T16:38:31.926Z,77.26
2023-08-29T16:40:59.267Z,76.89
2023-08-29T16:43:27.383Z,76.97
2023-08-29T16:45:54.086Z,76.79
2023-08-29T16:48:20.618Z,76.80
2023-08-29T16:50:48.879Z,77.05
2023-08-29T16:53:15.720Z,77.01
2023-08-29T16:55:42.300Z,77.36
2023-08-29T16:58:09.263Z,77.20
2023-08-29T17:00:36.298Z,76.82
2023-08-29T17:03:11.130Z,76.41
2023-08-29T17:05:39.208Z,76.03
2023-08-29T17:08:07.309Z,76.22
2023-08-29T17:10:34.518Z,76.13
2023-08-29T17:13:01.067Z,76.34
2023-08-29T17:15:27.682Z,76.62
2023-08-29T17:17:54.255Z,76.95
2023-08-29T17:20:21.661Z,77.20
2023-08-29T17:22:49.359Z,77.20
2023-08-29T17:25:15.969Z,77.22
2023-08-29T17:27:42.529Z,76.67
2023-08-29T17:30:09.828Z,76.59
2023-08-29T17:32:36.395Z,76.78
2023-08-29T17:35:03.327Z,76.87
2023-08-29T17:37:30.085Z,76.87
2023-08-29T17:39:56.925Z,77.28
2023-08-29T17:42:23.496Z,77.53
2023-08-29T17:44:53.394Z,77.40
2023-08-29T17:47:19.988Z,77.45
2023-08-29T17:49:46.623Z,77.35
2023-08-29T17:52:13.181Z,77.34
2023-08-29T17:54:39.910Z,77.40
2023-08-29T17:57:06.474Z,77.44
2023-08-29T17:59:33.333Z,77.59
2023-08-29T18:01:59.891Z,77.83
2023-08-29T18:04:26.484Z,77.65
2023-08-29T18:06:53.061Z,77.23
2023-08-29T18:09:19.600Z,77.36
2023-08-29T18:11:46.451Z,77.01
2023-08-29T18:14:13.146Z,77.01
2023-08-29T18:16:39.883Z,76.91
2023-08-29T18:19:06.493Z,76.93
2023-08-29T18:21:33.586Z,77.40
2023-08-29T18:24:00.409Z,77.61
2023-08-29T18:26:26.898Z,77.64
2023-08-29T18:28:53.540Z,77.39
2023-08-29T18:31:20.544Z,77.24
2023-08-29T18:33:47.090Z,77.47
2023-08-29T18:36:13.703Z,77.23
2023-08-29T18:38:40.265Z,77.38
2023-08-29T18:41:06.800Z,77.58
2023-08-29T18:43:33.446Z,77.84
2023-08-29T18:46:00.048Z,77.72
2023-08-29T18:48:26.705Z,77.66
2023-08-29T18:50:53.204Z,77.38
2023-08-29T18:53:21.005Z,77.08
2023-08-29T18:55:47.710Z,77.34
2023-08-29T18:58:14.772Z,77.26
2023-08-29T19:00:45.297Z,77.31
2023-08-29T19:03:12.157Z,77.80
2023-08-29T19:05:40.827Z,77.59
2023-08-29T19:08:07.952Z,77.45
2023-08-29T19:10:36.900Z,77.52
2023-08-29T19:13:04.122Z,77.33
2023-08-29T19:15:31.939Z,77.39
2023-08-29T19:17:59.078Z,77.61
2023-08-29T19:20:25.683Z,77.61
2023-08-29T19:22:52.211Z,77.73
2023-08-29T19:25:19.392Z,78.00
2023-08-29T19:27:45.966Z,77.87
2023-08-29T19:30:13.046Z,77.66
2023-08-29T19:32:39.857Z,77.67
2023-08-29T19:35:07.445Z,77.30
2023-08-29T19:37:33.994Z,77.40
2023-08-29T19:40:00.524Z,77.40
2023-08-29T19:42:27.374Z,77.63
2023-08-29T19:44:53.951Z,77.91
2023-08-29T19:47:26.169Z,77.88
2023-08-29T19:49:52.691Z,77.72
2023-08-29T19:52:20.036Z,77.78
2023-08-29T19:54:46.649Z,77.55
2023-08-29T19:57:14.326Z,77.37
2023-08-29T19:59:41.098Z,77.41
2023-08-29T20:02:07.880Z,77.49
2023-08-29T20:04:34.539Z,77.49
2023-08-29T20:07:01.634Z,77.60
2023-08-29T20:09:30.325Z,77.64
2023-08-29T20:11:59.193Z,77.91
2023-08-29T20:14:25.766Z,77.42
2023-08-29T20:16:53.883Z,77.47
2023-08-29T20:19:23.998Z,77.26
2023-08-29T20:21:51.221Z,77.63
2023-08-29T20:24:20.525Z,77.32
2023-08-29T20:26:48.252Z,77.34
2023-08-29T20:29:14.806Z,77.72
2023-08-29T20:31:41.348Z,77.82
2023-08-29T20:34:07.878Z,78.03
2023-08-29T20:36:34.819Z,77.71
2023-08-29T20:39:01.578Z,77.58
2023-08-29T20:41:28.159Z,77.63
2023-08-29T20:43:54.656Z,77.54
2023-08-29T20:46:21.800Z,77.46
2023-08-29T20:48:52.293Z,77.57
2023-08-29T20:51:19.449Z,77.98
2023-08-29T20:53:46.224Z,78.26
2023-08-29T20:56:12.864Z,78.06
2023-08-29T20:58:39.491Z,78.10
2023-08-29T21:01:06.009Z,77.69
2023-08-29T21:03:33.007Z,77.50
2023-08-29T21:05:59.803Z,77.73
2023-08-29T21:08:27.067Z,77.90
2023-08-29T21:10:53.740Z,78.08
2023-08-29T21:13:21.457Z,78.11
2023-08-29T21:15:48.258Z,78.32
2023-08-29T21:18:18.094Z,78.17
2023-08-29T21:20:54.875Z,78.39
2023-08-29T21:23:21.835Z,78.27
2023-08-29T21:25:48.640Z,77.90
2023-08-29T21:28:16.909Z,77.90
2023-08-29T21:30:44.818Z,77.90
2023-08-29T21:33:11.711Z,78.08
2023-08-29T21:35:42.537Z,78.06
2023-08-29T21:38:11.278Z,78.09
2023-08-29T21:40:41.500Z,78.21
2023-08-29T21:43:08.999Z,78.15
2023-08-29T21:45:36.332Z,78.02
2023-08-29T21:48:08.733Z,78.02
2023-08-29T21:50:39.380Z,78.03
2023-08-29T21:53:07.400Z,78.13
2023-08-29T21:55:34.878Z,78.37
2023-08-29T21:58:01.806Z,78.40
2023-08-29T22:00:28.352Z,78.53
2023-08-29T22:02:54.989Z,78.23
2023-08-29T22:05:21.775Z,78.32
2023-08-29T22:07:48.305Z,78.14
2023-08-29T22:10:14.869Z,77.93
2023-08-29T22:12:42.184Z,78.19
2023-08-29T22:15:09.982Z,78.30
2023-08-29T22:17:38.205Z,78.56
2023-08-29T22:20:05.854Z,78.55
2023-08-29T22:22:32.412Z,78.39
2023-08-29T22:24:58.965Z,78.21
2023-08-29T22:27:25.483Z,78.30
2023-08-29T22:29:52.139Z,78.03
2023-08-29T22:32:18.742Z,78.19
2023-08-29T22:34:46.205Z,78.35
2023-08-29T22:37:15.654Z,78.55
2023-08-29T22:39:42.258Z,78.27
2023-08-29T22:42:10.037Z,78.38
2023-08-29T22:44:41.928Z,78.16
2023-08-29T22:47:11.105Z,78.02
2023-08-29T22:49:37.613Z,78.12
2023-08-29T22:52:04.900Z,78.28
2023-08-29T22:54:31.935Z,78.53
2023-08-29T22:56:59.334Z,78.73
2023-08-29T22:59:26.174Z,79.00
2023-08-29T23:01:52.832Z,78.60
2023-08-29T23:04:19.324Z,78.82
2023-08-29T23:06:46.119Z,78.55
2023-08-29T23:09:12.858Z,78.49
2023-08-29T23:11:40.459Z,78.38
2023-08-29T23:14:06.997Z,78.52
2023-08-29T23:16:33.653Z,78.51
2023-08-29T23:19:00.201Z,78.93
2023-08-29T23:21:26.759Z,79.30
2023-08-29T23:23:55.284Z,79.02
2023-08-29T23:26:21.795Z,78.80
2023-08-29T23:28:48.314Z,78.78
2023-08-29T23:31:15.818Z,78.66
2023-08-29T23:33:52.316Z,78.41
2023-08-29T23:36:19.204Z,78.90
2023-08-29T23:38:45.831Z,79.08
2023-08-29T23:41:12.358Z,79.13
2023-08-29T23:43:39.550Z,78.82
2023-08-29T23:46:06.054Z,78.66
2023-08-29T23:48:32.648Z,78.77
2023-08-29T23:50:59.193Z,78.60
2023-08-29T23:53:25.846Z,78.38
2023-08-29T23:55:52.509Z,79.03
2023-08-29T23:58:19.177Z,79.05
